sensor_id;sensor_type;location;lat;lon;timestamp;temperature;humidity
21895;DHT22;11112;51.270;7.224;2022-10-17T00:00:04;16.30;99.90
21895;DHT22;11112;51.270;7.224;2022-10-17T00:02:34;16.30;99.90
21895;DHT22;11112;51.270;7.224;2022-10-17T00:05:04;16.20;99.90
21895;DHT22;11112;51.270;7.224;2022-10-17T00:07:31;16.30;99.90
21895;DHT22;11112;51.270;7.224;2022-10-17T00:09:58;16.30;99.90
21895;DHT22;11112;51.270;7.224;2022-10-17T00:12:26;16.30;99.90
21895;DHT22;11112;51.270;7.224;2022-10-17T00:14:53;16.30;99.90
21895;DHT22;11112;51.270;7.224;2022-10-17T00:17:20;16.30;99.90
21895;DHT22;11112;51.270;7.224;2022-10-17T00:19:47;16.30;99.90
21895;DHT22;11112;51.270;7.224;2022-10-17T00:22:16;16.30;99.90
21895;DHT22;11112;51.270;7.224;2022-10-17T00:24:43;16.30;99.90
21895;DHT22;11112;51.270;7.224;2022-10-17T00:27:10;16.30;99.90
21895;DHT22;11112;51.270;7.224;2022-10-17T00:29:37;16.30;99.90
21895;DHT22;11112;51.270;7.224;2022-10-17T00:32:05;16.30;99.90
21895;DHT22;11112;51.270;7.224;2022-10-17T00:34:32;16.30;99.90
21895;DHT22;11112;51.270;7.224;2022-10-17T00:36:59;16.30;99.90
21895;DHT22;11112;51.270;7.224;2022-10-17T00:39:28;16.30;99.90
21895;DHT22;11112;51.270;7.224;2022-10-17T00:41:56;16.30;99.90
21895;DHT22;11112;51.270;7.224;2022-10-17T00:44:59;16.30;99.90
21895;DHT22;11112;51.270;7.224;2022-10-17T00:47:28;16.30;99.90
21895;DHT22;11112;51.270;7.224;2022-10-17T00:49:56;16.30;99.90
21895;DHT22;11112;51.270;7.224;2022-10-17T00:52:26;16.30;99.90
21895;DHT22;11112;51.270;7.224;2022-10-17T00:55:00;16.30;99.90
21895;DHT22;11112;51.270;7.224;2022-10-17T00:57:30;16.30;99.90
21895;DHT22;11112;51.270;7.224;2022-10-17T00:59:59;16.30;99.90
21895;DHT22;11112;51.270;7.224;2022-10-17T01:02:30;16.30;99.90
21895;DHT22;11112;51.270;7.224;2022-10-17T01:04:58;16.30;99.90
21895;DHT22;11112;51.270;7.224;2022-10-17T01:07:26;16.30;99.90
21895;DHT22;11112;51.270;7.224;2022-10-17T01:09:55;16.30;99.90
21895;DHT22;11112;51.270;7.224;2022-10-17T01:12:24;16.30;99.90
21895;DHT22;11112;51.270;7.224;2022-10-17T01:15:07;16.30;99.90
21895;DHT22;11112;51.270;7.224;2022-10-17T01:17:47;16.30;99.90
21895;DHT22;11112;51.270;7.224;2022-10-17T01:20:36;16.30;99.90
21895;DHT22;11112;51.270;7.224;2022-10-17T01:23:53;16.40;99.90
21895;DHT22;11112;51.270;7.224;2022-10-17T01:26:56;16.40;99.90
21895;DHT22;11112;51.270;7.224;2022-10-17T01:29:53;16.40;99.90
21895;DHT22;11112;51.270;7.224;2022-10-17T01:32:32;16.40;99.90
21895;DHT22;11112;51.270;7.224;2022-10-17T01:35:05;16.40;99.90
21895;DHT22;11112;51.270;7.224;2022-10-17T01:37:44;16.40;99.90
21895;DHT22;11112;51.270;7.224;2022-10-17T01:40:16;16.40;99.90
21895;DHT22;11112;51.270;7.224;2022-10-17T01:42:54;16.40;99.90
21895;DHT22;11112;51.270;7.224;2022-10-17T01:45:27;16.40;99.90
21895;DHT22;11112;51.270;7.224;2022-10-17T01:48:03;16.40;99.90
21895;DHT22;11112;51.270;7.224;2022-10-17T01:50:36;16.40;99.90
21895;DHT22;11112;51.270;7.224;2022-10-17T01:53:09;16.40;99.90
21895;DHT22;11112;51.270;7.224;2022-10-17T01:55:41;16.40;99.90
21895;DHT22;11112;51.270;7.224;2022-10-17T01:58:13;16.40;99.90
21895;DHT22;11112;51.270;7.224;2022-10-17T02:00:45;16.40;99.90
21895;DHT22;11112;51.270;7.224;2022-10-17T02:03:18;16.40;99.90
21895;DHT22;11112;51.270;7.224;2022-10-17T02:05:46;16.40;99.90
21895;DHT22;11112;51.270;7.224;2022-10-17T02:08:23;16.40;99.90
21895;DHT22;11112;51.270;7.224;2022-10-17T02:10:55;16.40;99.90
21895;DHT22;11112;51.270;7.224;2022-10-17T02:13:33;16.40;99.90
21895;DHT22;11112;51.270;7.224;2022-10-17T02:16:16;16.50;99.90
21895;DHT22;11112;51.270;7.224;2022-10-17T02:19:05;16.50;99.90
21895;DHT22;11112;51.270;7.224;2022-10-17T02:21:45;16.40;99.90
21895;DHT22;11112;51.270;7.224;2022-10-17T02:24:19;16.40;99.90
21895;DHT22;11112;51.270;7.224;2022-10-17T02:26:58;16.40;99.90
21895;DHT22;11112;51.270;7.224;2022-10-17T02:29:33;16.40;99.90
21895;DHT22;11112;51.270;7.224;2022-10-17T02:32:06;16.40;99.90
21895;DHT22;11112;51.270;7.224;2022-10-17T02:34:38;16.40;99.90
21895;DHT22;11112;51.270;7.224;2022-10-17T02:37:09;16.40;99.90
21895;DHT22;11112;51.270;7.224;2022-10-17T02:39:39;16.40;99.90
21895;DHT22;11112;51.270;7.224;2022-10-17T02:42:09;16.40;99.90
21895;DHT22;11112;51.270;7.224;2022-10-17T02:44:37;16.40;99.90
21895;DHT22;11112;51.270;7.224;2022-10-17T02:47:10;16.40;99.90
21895;DHT22;11112;51.270;7.224;2022-10-17T02:49:43;16.40;99.90
21895;DHT22;11112;51.270;7.224;2022-10-17T02:52:20;16.40;99.90
21895;DHT22;11112;51.270;7.224;2022-10-17T02:54:53;16.40;99.90
21895;DHT22;11112;51.270;7.224;2022-10-17T02:57:27;16.40;99.90
21895;DHT22;11112;51.270;7.224;2022-10-17T02:59:57;16.50;99.90
21895;DHT22;11112;51.270;7.224;2022-10-17T03:02:25;16.40;99.90
21895;DHT22;11112;51.270;7.224;2022-10-17T03:04:54;16.40;99.90
21895;DHT22;11112;51.270;7.224;2022-10-17T03:07:22;16.40;99.90
21895;DHT22;11112;51.270;7.224;2022-10-17T03:09:49;16.40;99.90
21895;DHT22;11112;51.270;7.224;2022-10-17T03:12:16;16.40;99.90
21895;DHT22;11112;51.270;7.224;2022-10-17T03:14:43;16.40;99.90
21895;DHT22;11112;51.270;7.224;2022-10-17T03:17:10;16.40;99.90
21895;DHT22;11112;51.270;7.224;2022-10-17T03:19:37;16.40;99.90
21895;DHT22;11112;51.270;7.224;2022-10-17T03:22:06;16.40;99.90
21895;DHT22;11112;51.270;7.224;2022-10-17T03:24:33;16.40;99.90
21895;DHT22;11112;51.270;7.224;2022-10-17T03:27:00;16.40;99.90
21895;DHT22;11112;51.270;7.224;2022-10-17T03:29:30;16.40;99.90
21895;DHT22;11112;51.270;7.224;2022-10-17T03:31:57;16.40;99.90
21895;DHT22;11112;51.270;7.224;2022-10-17T03:34:24;16.40;99.90
21895;DHT22;11112;51.270;7.224;2022-10-17T03:36:52;16.40;99.90
21895;DHT22;11112;51.270;7.224;2022-10-17T03:39:20;16.40;99.90
21895;DHT22;11112;51.270;7.224;2022-10-17T03:41:47;16.40;99.90
21895;DHT22;11112;51.270;7.224;2022-10-17T03:44:15;16.40;99.90
21895;DHT22;11112;51.270;7.224;2022-10-17T03:46:42;16.40;99.90
21895;DHT22;11112;51.270;7.224;2022-10-17T03:49:09;16.40;99.90
21895;DHT22;11112;51.270;7.224;2022-10-17T03:51:36;16.40;99.90
21895;DHT22;11112;51.270;7.224;2022-10-17T03:54:03;16.40;99.90
21895;DHT22;11112;51.270;7.224;2022-10-17T03:56:32;16.40;99.90
21895;DHT22;11112;51.270;7.224;2022-10-17T03:58:59;16.40;99.90
21895;DHT22;11112;51.270;7.224;2022-10-17T04:01:26;16.40;99.90
21895;DHT22;11112;51.270;7.224;2022-10-17T04:03:54;16.40;99.90
21895;DHT22;11112;51.270;7.224;2022-10-17T04:06:22;16.40;99.90
21895;DHT22;11112;51.270;7.224;2022-10-17T04:08:50;16.40;99.90
21895;DHT22;11112;51.270;7.224;2022-10-17T04:11:19;16.40;99.90
21895;DHT22;11112;51.270;7.224;2022-10-17T04:13:52;16.40;99.90
21895;DHT22;11112;51.270;7.224;2022-10-17T04:16:19;16.40;99.90
21895;DHT22;11112;51.270;7.224;2022-10-17T04:18:50;16.40;99.90
21895;DHT22;11112;51.270;7.224;2022-10-17T04:21:18;16.40;99.90
21895;DHT22;11112;51.270;7.224;2022-10-17T04:23:45;16.40;99.90
21895;DHT22;11112;51.270;7.224;2022-10-17T04:26:13;16.40;99.90
21895;DHT22;11112;51.270;7.224;2022-10-17T04:28:40;16.40;99.90
21895;DHT22;11112;51.270;7.224;2022-10-17T04:31:11;16.30;99.90
21895;DHT22;11112;51.270;7.224;2022-10-17T04:33:40;16.40;99.90
21895;DHT22;11112;51.270;7.224;2022-10-17T04:36:11;16.40;99.90
21895;DHT22;11112;51.270;7.224;2022-10-17T04:38:39;16.40;99.90
21895;DHT22;11112;51.270;7.224;2022-10-17T04:41:09;16.30;99.90
21895;DHT22;11112;51.270;7.224;2022-10-17T04:43:38;16.30;99.90
21895;DHT22;11112;51.270;7.224;2022-10-17T04:46:08;16.30;99.90
21895;DHT22;11112;51.270;7.224;2022-10-17T04:48:37;16.30;99.90
21895;DHT22;11112;51.270;7.224;2022-10-17T04:51:07;16.30;99.90
21895;DHT22;11112;51.270;7.224;2022-10-17T04:53:36;16.30;99.90
21895;DHT22;11112;51.270;7.224;2022-10-17T04:56:08;16.30;99.90
21895;DHT22;11112;51.270;7.224;2022-10-17T04:58:36;16.30;99.90
21895;DHT22;11112;51.270;7.224;2022-10-17T05:01:05;16.30;99.90
21895;DHT22;11112;51.270;7.224;2022-10-17T05:03:35;16.30;99.90
21895;DHT22;11112;51.270;7.224;2022-10-17T05:06:04;16.30;99.90
21895;DHT22;11112;51.270;7.224;2022-10-17T05:08:32;16.30;99.90
21895;DHT22;11112;51.270;7.224;2022-10-17T05:11:00;16.30;99.90
21895;DHT22;11112;51.270;7.224;2022-10-17T05:13:27;16.30;99.90
21895;DHT22;11112;51.270;7.224;2022-10-17T05:15:57;16.30;99.90
21895;DHT22;11112;51.270;7.224;2022-10-17T05:18:26;16.30;99.90
21895;DHT22;11112;51.270;7.224;2022-10-17T05:20:54;16.30;99.90
21895;DHT22;11112;51.270;7.224;2022-10-17T05:23:22;16.30;99.90
21895;DHT22;11112;51.270;7.224;2022-10-17T05:25:53;16.30;99.90
21895;DHT22;11112;51.270;7.224;2022-10-17T05:28:20;16.30;99.90
21895;DHT22;11112;51.270;7.224;2022-10-17T05:30:48;16.30;99.90
21895;DHT22;11112;51.270;7.224;2022-10-17T05:33:15;16.30;99.90
21895;DHT22;11112;51.270;7.224;2022-10-17T05:35:42;16.30;99.90
21895;DHT22;11112;51.270;7.224;2022-10-17T05:38:15;16.30;99.90
21895;DHT22;11112;51.270;7.224;2022-10-17T05:40:44;16.30;99.90
21895;DHT22;11112;51.270;7.224;2022-10-17T05:43:11;16.30;99.90
21895;DHT22;11112;51.270;7.224;2022-10-17T05:45:39;16.30;99.90
21895;DHT22;11112;51.270;7.224;2022-10-17T05:48:06;16.30;99.90
21895;DHT22;11112;51.270;7.224;2022-10-17T05:50:34;16.30;99.90
21895;DHT22;11112;51.270;7.224;2022-10-17T05:53:02;16.30;99.90
21895;DHT22;11112;51.270;7.224;2022-10-17T05:55:30;16.30;99.90
21895;DHT22;11112;51.270;7.224;2022-10-17T05:58:00;16.30;99.90
21895;DHT22;11112;51.270;7.224;2022-10-17T06:00:28;16.30;99.90
21895;DHT22;11112;51.270;7.224;2022-10-17T06:02:55;16.40;99.90
21895;DHT22;11112;51.270;7.224;2022-10-17T06:05:22;16.40;99.90
21895;DHT22;11112;51.270;7.224;2022-10-17T06:07:50;16.30;99.90
21895;DHT22;11112;51.270;7.224;2022-10-17T06:10:18;16.30;99.90
21895;DHT22;11112;51.270;7.224;2022-10-17T06:12:46;16.30;99.90
21895;DHT22;11112;51.270;7.224;2022-10-17T06:15:13;16.30;99.90
21895;DHT22;11112;51.270;7.224;2022-10-17T06:17:41;16.40;99.90
21895;DHT22;11112;51.270;7.224;2022-10-17T06:20:09;16.40;99.90
21895;DHT22;11112;51.270;7.224;2022-10-17T06:22:36;16.40;99.90
21895;DHT22;11112;51.270;7.224;2022-10-17T06:25:07;16.40;99.90
21895;DHT22;11112;51.270;7.224;2022-10-17T06:27:34;16.40;99.90
21895;DHT22;11112;51.270;7.224;2022-10-17T06:30:08;16.40;99.90
21895;DHT22;11112;51.270;7.224;2022-10-17T06:32:36;16.40;99.90
21895;DHT22;11112;51.270;7.224;2022-10-17T06:35:03;16.40;99.90
21895;DHT22;11112;51.270;7.224;2022-10-17T06:37:32;16.40;99.90
21895;DHT22;11112;51.270;7.224;2022-10-17T06:39:59;16.40;99.90
21895;DHT22;11112;51.270;7.224;2022-10-17T06:42:27;16.40;99.90
21895;DHT22;11112;51.270;7.224;2022-10-17T06:44:55;16.40;99.90
21895;DHT22;11112;51.270;7.224;2022-10-17T06:47:23;16.40;99.90
21895;DHT22;11112;51.270;7.224;2022-10-17T06:49:51;16.40;99.90
21895;DHT22;11112;51.270;7.224;2022-10-17T06:52:18;16.40;99.90
21895;DHT22;11112;51.270;7.224;2022-10-17T06:54:46;16.40;99.90
21895;DHT22;11112;51.270;7.224;2022-10-17T06:57:13;16.40;99.90
21895;DHT22;11112;51.270;7.224;2022-10-17T06:59:40;16.40;99.90
21895;DHT22;11112;51.270;7.224;2022-10-17T07:02:08;16.40;99.90
21895;DHT22;11112;51.270;7.224;2022-10-17T07:04:38;16.40;99.90
21895;DHT22;11112;51.270;7.224;2022-10-17T07:07:05;16.40;99.90
21895;DHT22;11112;51.270;7.224;2022-10-17T07:09:35;16.40;99.90
21895;DHT22;11112;51.270;7.224;2022-10-17T07:12:03;16.40;99.90
21895;DHT22;11112;51.270;7.224;2022-10-17T07:14:32;16.50;99.90
21895;DHT22;11112;51.270;7.224;2022-10-17T07:17:00;16.50;99.90
21895;DHT22;11112;51.270;7.224;2022-10-17T07:19:28;16.50;99.90
21895;DHT22;11112;51.270;7.224;2022-10-17T07:21:56;16.50;99.90
21895;DHT22;11112;51.270;7.224;2022-10-17T07:24:23;16.50;99.90
21895;DHT22;11112;51.270;7.224;2022-10-17T07:26:51;16.60;99.90
21895;DHT22;11112;51.270;7.224;2022-10-17T07:29:18;16.60;99.90
21895;DHT22;11112;51.270;7.224;2022-10-17T07:31:45;16.60;99.90
21895;DHT22;11112;51.270;7.224;2022-10-17T07:34:13;16.60;99.90
21895;DHT22;11112;51.270;7.224;2022-10-17T07:36:40;16.60;99.90
21895;DHT22;11112;51.270;7.224;2022-10-17T07:39:09;16.60;99.90
21895;DHT22;11112;51.270;7.224;2022-10-17T07:41:36;16.60;99.90
21895;DHT22;11112;51.270;7.224;2022-10-17T07:44:04;16.70;99.90
21895;DHT22;11112;51.270;7.224;2022-10-17T07:46:31;16.70;99.90
21895;DHT22;11112;51.270;7.224;2022-10-17T07:48:59;16.70;99.90
21895;DHT22;11112;51.270;7.224;2022-10-17T07:51:26;16.70;99.90
21895;DHT22;11112;51.270;7.224;2022-10-17T07:53:54;16.70;99.90
21895;DHT22;11112;51.270;7.224;2022-10-17T07:56:22;16.70;99.90
21895;DHT22;11112;51.270;7.224;2022-10-17T07:58:50;16.70;99.90
21895;DHT22;11112;51.270;7.224;2022-10-17T08:01:17;16.70;99.90
21895;DHT22;11112;51.270;7.224;2022-10-17T08:03:45;16.80;99.90
21895;DHT22;11112;51.270;7.224;2022-10-17T08:06:13;16.80;99.90
21895;DHT22;11112;51.270;7.224;2022-10-17T08:08:41;16.80;99.90
21895;DHT22;11112;51.270;7.224;2022-10-17T08:11:10;16.80;99.90
21895;DHT22;11112;51.270;7.224;2022-10-17T08:13:42;16.90;99.90
21895;DHT22;11112;51.270;7.224;2022-10-17T08:16:11;16.90;99.90
21895;DHT22;11112;51.270;7.224;2022-10-17T08:18:40;16.90;99.90
21895;DHT22;11112;51.270;7.224;2022-10-17T08:21:08;16.90;99.90
21895;DHT22;11112;51.270;7.224;2022-10-17T08:23:36;16.90;99.90
21895;DHT22;11112;51.270;7.224;2022-10-17T08:26:05;17.00;99.90
21895;DHT22;11112;51.270;7.224;2022-10-17T08:28:35;17.10;99.90
21895;DHT22;11112;51.270;7.224;2022-10-17T08:31:07;17.10;99.90
21895;DHT22;11112;51.270;7.224;2022-10-17T08:33:35;17.10;99.90
21895;DHT22;11112;51.270;7.224;2022-10-17T08:36:04;17.10;99.90
21895;DHT22;11112;51.270;7.224;2022-10-17T08:38:33;17.10;99.90
21895;DHT22;11112;51.270;7.224;2022-10-17T08:41:04;17.20;99.90
21895;DHT22;11112;51.270;7.224;2022-10-17T08:43:49;17.20;99.90
21895;DHT22;11112;51.270;7.224;2022-10-17T08:46:29;17.20;99.90
21895;DHT22;11112;51.270;7.224;2022-10-17T08:49:00;17.30;99.90
21895;DHT22;11112;51.270;7.224;2022-10-17T08:51:31;17.30;99.90
21895;DHT22;11112;51.270;7.224;2022-10-17T08:54:05;17.40;99.90
21895;DHT22;11112;51.270;7.224;2022-10-17T08:56:42;17.40;99.90
21895;DHT22;11112;51.270;7.224;2022-10-17T08:59:12;17.50;99.90
21895;DHT22;11112;51.270;7.224;2022-10-17T09:01:47;17.50;99.90
21895;DHT22;11112;51.270;7.224;2022-10-17T09:04:43;17.50;99.90
21895;DHT22;11112;51.270;7.224;2022-10-17T09:07:20;17.60;99.90
21895;DHT22;11112;51.270;7.224;2022-10-17T09:09:57;17.60;99.90
21895;DHT22;11112;51.270;7.224;2022-10-17T09:12:39;17.60;99.90
21895;DHT22;11112;51.270;7.224;2022-10-17T09:15:36;17.60;99.90
21895;DHT22;11112;51.270;7.224;2022-10-17T09:18:12;17.70;99.90
21895;DHT22;11112;51.270;7.224;2022-10-17T09:20:44;17.70;99.90
21895;DHT22;11112;51.270;7.224;2022-10-17T09:23:19;17.80;99.90
21895;DHT22;11112;51.270;7.224;2022-10-17T09:25:51;17.80;99.90
21895;DHT22;11112;51.270;7.224;2022-10-17T09:28:24;17.80;99.90
21895;DHT22;11112;51.270;7.224;2022-10-17T09:30:54;17.90;99.90
21895;DHT22;11112;51.270;7.224;2022-10-17T09:33:27;18.00;99.90
21895;DHT22;11112;51.270;7.224;2022-10-17T09:35:56;18.00;99.90
21895;DHT22;11112;51.270;7.224;2022-10-17T09:38:28;18.10;99.90
21895;DHT22;11112;51.270;7.224;2022-10-17T09:41:01;18.10;99.90
21895;DHT22;11112;51.270;7.224;2022-10-17T09:43:29;18.10;99.90
21895;DHT22;11112;51.270;7.224;2022-10-17T09:46:04;18.10;99.90
21895;DHT22;11112;51.270;7.224;2022-10-17T09:48:39;18.10;99.90
21895;DHT22;11112;51.270;7.224;2022-10-17T09:51:11;18.10;99.90
21895;DHT22;11112;51.270;7.224;2022-10-17T09:53:41;18.10;99.90
21895;DHT22;11112;51.270;7.224;2022-10-17T09:56:17;18.10;99.90
21895;DHT22;11112;51.270;7.224;2022-10-17T09:58:47;18.20;99.90
21895;DHT22;11112;51.270;7.224;2022-10-17T10:01:18;18.20;99.90
21895;DHT22;11112;51.270;7.224;2022-10-17T10:04:08;18.10;99.90
21895;DHT22;11112;51.270;7.224;2022-10-17T10:06:36;18.10;99.90
21895;DHT22;11112;51.270;7.224;2022-10-17T10:09:05;18.20;99.90
21895;DHT22;11112;51.270;7.224;2022-10-17T10:11:49;18.10;99.90
21895;DHT22;11112;51.270;7.224;2022-10-17T10:14:20;18.10;99.90
21895;DHT22;11112;51.270;7.224;2022-10-17T10:16:49;18.10;99.90
21895;DHT22;11112;51.270;7.224;2022-10-17T10:19:28;18.10;99.90
21895;DHT22;11112;51.270;7.224;2022-10-17T10:21:58;18.10;99.90
21895;DHT22;11112;51.270;7.224;2022-10-17T10:24:26;18.10;99.90
21895;DHT22;11112;51.270;7.224;2022-10-17T10:26:56;18.10;99.90
21895;DHT22;11112;51.270;7.224;2022-10-17T10:29:29;18.10;99.90
21895;DHT22;11112;51.270;7.224;2022-10-17T10:32:08;18.10;99.90
21895;DHT22;11112;51.270;7.224;2022-10-17T10:34:49;18.10;99.90
21895;DHT22;11112;51.270;7.224;2022-10-17T10:37:21;18.10;99.90
21895;DHT22;11112;51.270;7.224;2022-10-17T10:39:51;18.10;99.90
21895;DHT22;11112;51.270;7.224;2022-10-17T10:42:25;18.10;99.90
21895;DHT22;11112;51.270;7.224;2022-10-17T10:44:58;18.10;99.90
21895;DHT22;11112;51.270;7.224;2022-10-17T10:47:28;18.10;99.90
21895;DHT22;11112;51.270;7.224;2022-10-17T10:50:17;18.10;99.90
21895;DHT22;11112;51.270;7.224;2022-10-17T10:52:53;18.10;99.90
21895;DHT22;11112;51.270;7.224;2022-10-17T10:55:36;18.10;99.90
21895;DHT22;11112;51.270;7.224;2022-10-17T10:58:19;18.10;99.90
21895;DHT22;11112;51.270;7.224;2022-10-17T11:00:53;18.20;99.90
21895;DHT22;11112;51.270;7.224;2022-10-17T11:03:26;18.10;99.90
21895;DHT22;11112;51.270;7.224;2022-10-17T11:06:01;18.20;99.90
21895;DHT22;11112;51.270;7.224;2022-10-17T11:08:43;18.20;99.90
21895;DHT22;11112;51.270;7.224;2022-10-17T11:11:16;18.20;99.90
21895;DHT22;11112;51.270;7.224;2022-10-17T11:13:53;18.30;99.90
21895;DHT22;11112;51.270;7.224;2022-10-17T11:16:29;18.30;99.90
21895;DHT22;11112;51.270;7.224;2022-10-17T11:19:06;18.30;99.90
21895;DHT22;11112;51.270;7.224;2022-10-17T11:21:44;18.30;99.90
21895;DHT22;11112;51.270;7.224;2022-10-17T11:24:20;18.30;99.90
21895;DHT22;11112;51.270;7.224;2022-10-17T11:26:59;18.30;99.90
21895;DHT22;11112;51.270;7.224;2022-10-17T11:29:29;18.30;99.90
21895;DHT22;11112;51.270;7.224;2022-10-17T11:32:02;18.30;99.90
21895;DHT22;11112;51.270;7.224;2022-10-17T11:34:35;18.30;99.90
21895;DHT22;11112;51.270;7.224;2022-10-17T11:37:14;18.30;99.90
21895;DHT22;11112;51.270;7.224;2022-10-17T11:39:46;18.30;99.90
21895;DHT22;11112;51.270;7.224;2022-10-17T11:42:19;18.30;99.90
21895;DHT22;11112;51.270;7.224;2022-10-17T11:44:54;18.30;99.90
21895;DHT22;11112;51.270;7.224;2022-10-17T11:47:31;18.30;99.90
21895;DHT22;11112;51.270;7.224;2022-10-17T11:50:08;18.30;99.90
21895;DHT22;11112;51.270;7.224;2022-10-17T11:52:47;18.30;99.90
21895;DHT22;11112;51.270;7.224;2022-10-17T11:55:18;18.30;99.90
21895;DHT22;11112;51.270;7.224;2022-10-17T11:57:58;18.30;99.90
21895;DHT22;11112;51.270;7.224;2022-10-17T12:00:47;18.30;99.90
21895;DHT22;11112;51.270;7.224;2022-10-17T12:03:28;18.30;99.90
21895;DHT22;11112;51.270;7.224;2022-10-17T12:06:10;18.30;99.90
21895;DHT22;11112;51.270;7.224;2022-10-17T12:08:45;18.30;99.90
21895;DHT22;11112;51.270;7.224;2022-10-17T12:11:27;18.30;99.90
21895;DHT22;11112;51.270;7.224;2022-10-17T12:14:01;18.30;99.90
21895;DHT22;11112;51.270;7.224;2022-10-17T12:16:43;18.30;99.90
21895;DHT22;11112;51.270;7.224;2022-10-17T12:19:23;18.30;99.90
21895;DHT22;11112;51.270;7.224;2022-10-17T12:22:16;18.40;99.90
21895;DHT22;11112;51.270;7.224;2022-10-17T12:24:56;18.40;99.90
21895;DHT22;11112;51.270;7.224;2022-10-17T12:27:35;18.40;99.90
21895;DHT22;11112;51.270;7.224;2022-10-17T12:30:20;18.40;99.90
21895;DHT22;11112;51.270;7.224;2022-10-17T12:33:02;18.40;99.90
21895;DHT22;11112;51.270;7.224;2022-10-17T12:35:33;18.40;99.90
21895;DHT22;11112;51.270;7.224;2022-10-17T12:38:23;18.40;99.90
21895;DHT22;11112;51.270;7.224;2022-10-17T12:41:01;18.40;99.90
21895;DHT22;11112;51.270;7.224;2022-10-17T12:43:44;18.40;99.90
21895;DHT22;11112;51.270;7.224;2022-10-17T12:49:37;18.40;99.90
21895;DHT22;11112;51.270;7.224;2022-10-17T12:55:23;18.40;99.90
21895;DHT22;11112;51.270;7.224;2022-10-17T12:57:55;18.40;99.90
21895;DHT22;11112;51.270;7.224;2022-10-17T13:00:32;18.40;99.90
21895;DHT22;11112;51.270;7.224;2022-10-17T13:03:09;18.40;99.90
21895;DHT22;11112;51.270;7.224;2022-10-17T13:05:46;18.40;99.90
21895;DHT22;11112;51.270;7.224;2022-10-17T13:08:20;18.40;99.90
21895;DHT22;11112;51.270;7.224;2022-10-17T13:10:51;18.40;99.90
21895;DHT22;11112;51.270;7.224;2022-10-17T13:13:35;18.40;99.90
21895;DHT22;11112;51.270;7.224;2022-10-17T13:16:05;18.40;99.90
21895;DHT22;11112;51.270;7.224;2022-10-17T13:18:33;18.40;99.90
21895;DHT22;11112;51.270;7.224;2022-10-17T13:21:02;18.40;99.90
21895;DHT22;11112;51.270;7.224;2022-10-17T13:23:34;18.40;99.90
21895;DHT22;11112;51.270;7.224;2022-10-17T13:26:12;18.40;99.90
21895;DHT22;11112;51.270;7.224;2022-10-17T13:28:42;18.40;99.90
21895;DHT22;11112;51.270;7.224;2022-10-17T13:31:27;18.50;99.90
21895;DHT22;11112;51.270;7.224;2022-10-17T13:33:57;18.50;99.90
21895;DHT22;11112;51.270;7.224;2022-10-17T13:36:26;18.50;99.90
21895;DHT22;11112;51.270;7.224;2022-10-17T13:38:55;18.50;99.90
21895;DHT22;11112;51.270;7.224;2022-10-17T13:41:25;18.50;99.90
21895;DHT22;11112;51.270;7.224;2022-10-17T13:43:56;18.50;99.90
21895;DHT22;11112;51.270;7.224;2022-10-17T13:46:26;18.40;99.90
21895;DHT22;11112;51.270;7.224;2022-10-17T13:48:56;18.50;99.90
21895;DHT22;11112;51.270;7.224;2022-10-17T13:51:25;18.40;99.90
21895;DHT22;11112;51.270;7.224;2022-10-17T13:53:53;18.40;99.90
21895;DHT22;11112;51.270;7.224;2022-10-17T13:56:22;18.40;99.90
21895;DHT22;11112;51.270;7.224;2022-10-17T13:58:52;18.40;99.90
21895;DHT22;11112;51.270;7.224;2022-10-17T14:01:24;18.40;99.90
21895;DHT22;11112;51.270;7.224;2022-10-17T14:03:52;18.40;99.90
21895;DHT22;11112;51.270;7.224;2022-10-17T14:06:21;18.40;99.90
21895;DHT22;11112;51.270;7.224;2022-10-17T14:08:52;18.40;99.90
21895;DHT22;11112;51.270;7.224;2022-10-17T14:11:29;18.40;99.90
21895;DHT22;11112;51.270;7.224;2022-10-17T14:14:00;18.40;99.90
21895;DHT22;11112;51.270;7.224;2022-10-17T14:16:36;18.40;99.90
21895;DHT22;11112;51.270;7.224;2022-10-17T14:19:05;18.30;99.90
21895;DHT22;11112;51.270;7.224;2022-10-17T14:21:47;18.30;99.90
21895;DHT22;11112;51.270;7.224;2022-10-17T14:24:27;18.30;99.90
21895;DHT22;11112;51.270;7.224;2022-10-17T14:26:57;18.30;99.90
21895;DHT22;11112;51.270;7.224;2022-10-17T14:29:27;18.30;99.90
21895;DHT22;11112;51.270;7.224;2022-10-17T14:32:02;18.30;99.90
21895;DHT22;11112;51.270;7.224;2022-10-17T14:34:32;18.30;99.90
21895;DHT22;11112;51.270;7.224;2022-10-17T14:37:01;18.30;99.90
21895;DHT22;11112;51.270;7.224;2022-10-17T14:39:35;18.30;99.90
21895;DHT22;11112;51.270;7.224;2022-10-17T14:42:02;18.30;99.90
21895;DHT22;11112;51.270;7.224;2022-10-17T14:44:31;18.30;99.90
21895;DHT22;11112;51.270;7.224;2022-10-17T14:47:02;18.30;99.90
21895;DHT22;11112;51.270;7.224;2022-10-17T14:49:34;18.30;99.90
21895;DHT22;11112;51.270;7.224;2022-10-17T14:54:57;18.30;99.90
21895;DHT22;11112;51.270;7.224;2022-10-17T14:57:33;18.30;99.90
21895;DHT22;11112;51.270;7.224;2022-10-17T15:00:12;18.30;99.90
21895;DHT22;11112;51.270;7.224;2022-10-17T15:02:42;18.30;99.90
21895;DHT22;11112;51.270;7.224;2022-10-17T15:05:10;18.30;99.90
21895;DHT22;11112;51.270;7.224;2022-10-17T15:07:38;18.30;99.90
21895;DHT22;11112;51.270;7.224;2022-10-17T15:10:06;18.30;99.90
21895;DHT22;11112;51.270;7.224;2022-10-17T15:12:35;18.30;99.90
21895;DHT22;11112;51.270;7.224;2022-10-17T15:15:07;18.30;99.90
21895;DHT22;11112;51.270;7.224;2022-10-17T15:17:34;18.30;99.90
21895;DHT22;11112;51.270;7.224;2022-10-17T15:20:12;18.30;99.90
21895;DHT22;11112;51.270;7.224;2022-10-17T15:22:42;18.30;99.90
21895;DHT22;11112;51.270;7.224;2022-10-17T15:25:09;18.30;99.90
21895;DHT22;11112;51.270;7.224;2022-10-17T15:27:37;18.30;99.90
21895;DHT22;11112;51.270;7.224;2022-10-17T15:30:16;18.30;99.90
21895;DHT22;11112;51.270;7.224;2022-10-17T15:32:46;18.30;99.90
21895;DHT22;11112;51.270;7.224;2022-10-17T15:35:19;18.30;99.90
21895;DHT22;11112;51.270;7.224;2022-10-17T15:37:48;18.30;99.90
21895;DHT22;11112;51.270;7.224;2022-10-17T15:40:18;18.30;99.90
21895;DHT22;11112;51.270;7.224;2022-10-17T15:42:47;18.30;99.90
21895;DHT22;11112;51.270;7.224;2022-10-17T15:45:17;18.30;99.90
21895;DHT22;11112;51.270;7.224;2022-10-17T15:47:49;18.30;99.90
21895;DHT22;11112;51.270;7.224;2022-10-17T15:50:21;18.30;99.90
21895;DHT22;11112;51.270;7.224;2022-10-17T15:52:49;18.30;99.90
21895;DHT22;11112;51.270;7.224;2022-10-17T15:55:19;18.30;99.90
21895;DHT22;11112;51.270;7.224;2022-10-17T15:57:47;18.30;99.90
21895;DHT22;11112;51.270;7.224;2022-10-17T16:00:17;18.30;99.90
21895;DHT22;11112;51.270;7.224;2022-10-17T16:02:47;18.20;99.90
21895;DHT22;11112;51.270;7.224;2022-10-17T16:05:17;18.20;99.90
21895;DHT22;11112;51.270;7.224;2022-10-17T16:07:49;18.30;99.90